sensor_id;sensor_type;location;lat;lon;timestamp;temperature;humidity
28524;DHT22;15734;50.904;6.922;2022-10-31T00:03:45;12.20;99.90
28524;DHT22;15734;50.904;6.922;2022-10-31T00:06:11;12.20;99.90
28524;DHT22;15734;50.904;6.922;2022-10-31T00:08:36;12.20;99.90
28524;DHT22;15734;50.904;6.922;2022-10-31T00:11:02;12.10;99.90
28524;DHT22;15734;50.904;6.922;2022-10-31T00:13:27;12.10;99.90
28524;DHT22;15734;50.904;6.922;2022-10-31T00:15:53;12.10;99.90
28524;DHT22;15734;50.904;6.922;2022-10-31T00:18:18;12.10;99.90
28524;DHT22;15734;50.904;6.922;2022-10-31T00:20:44;12.10;99.90
28524;DHT22;15734;50.904;6.922;2022-10-31T00:23:10;12.10;99.90
28524;DHT22;15734;50.904;6.922;2022-10-31T00:25:38;12.00;99.90
28524;DHT22;15734;50.904;6.922;2022-10-31T00:28:05;12.10;99.90
28524;DHT22;15734;50.904;6.922;2022-10-31T00:30:31;12.10;99.90
28524;DHT22;15734;50.904;6.922;2022-10-31T00:32:57;12.10;99.90
28524;DHT22;15734;50.904;6.922;2022-10-31T00:35:23;12.20;99.90
28524;DHT22;15734;50.904;6.922;2022-10-31T00:37:48;12.20;99.90
28524;DHT22;15734;50.904;6.922;2022-10-31T00:40:14;12.10;99.90
28524;DHT22;15734;50.904;6.922;2022-10-31T00:42:40;12.10;99.90
28524;DHT22;15734;50.904;6.922;2022-10-31T00:45:08;11.90;99.90
28524;DHT22;15734;50.904;6.922;2022-10-31T00:47:34;11.90;99.90
28524;DHT22;15734;50.904;6.922;2022-10-31T00:49:59;11.90;99.90
28524;DHT22;15734;50.904;6.922;2022-10-31T00:52:25;12.00;99.90
28524;DHT22;15734;50.904;6.922;2022-10-31T00:54:50;12.10;99.90
28524;DHT22;15734;50.904;6.922;2022-10-31T00:57:16;12.00;99.90
28524;DHT22;15734;50.904;6.922;2022-10-31T00:59:41;12.00;99.90
28524;DHT22;15734;50.904;6.922;2022-10-31T01:02:07;12.00;99.90
28524;DHT22;15734;50.904;6.922;2022-10-31T01:04:32;12.00;99.90
28524;DHT22;15734;50.904;6.922;2022-10-31T01:06:58;12.00;99.90
28524;DHT22;15734;50.904;6.922;2022-10-31T01:09:23;12.10;99.90
28524;DHT22;15734;50.904;6.922;2022-10-31T01:11:49;12.10;99.90
28524;DHT22;15734;50.904;6.922;2022-10-31T01:14:14;12.20;99.90
28524;DHT22;15734;50.904;6.922;2022-10-31T01:16:40;12.20;99.90
28524;DHT22;15734;50.904;6.922;2022-10-31T01:19:05;12.20;99.90
28524;DHT22;15734;50.904;6.922;2022-10-31T01:21:31;12.20;99.90
28524;DHT22;15734;50.904;6.922;2022-10-31T01:23:56;12.20;99.90
28524;DHT22;15734;50.904;6.922;2022-10-31T01:26:27;12.10;99.90
28524;DHT22;15734;50.904;6.922;2022-10-31T01:28:56;12.10;99.90
28524;DHT22;15734;50.904;6.922;2022-10-31T01:31:24;12.00;99.90
28524;DHT22;15734;50.904;6.922;2022-10-31T01:33:50;12.10;99.90
28524;DHT22;15734;50.904;6.922;2022-10-31T01:38:47;12.20;99.90
28524;DHT22;15734;50.904;6.922;2022-10-31T01:41:19;12.10;99.90
28524;DHT22;15734;50.904;6.922;2022-10-31T01:43:53;12.10;99.90
28524;DHT22;15734;50.904;6.922;2022-10-31T01:46:24;12.10;99.90
28524;DHT22;15734;50.904;6.922;2022-10-31T01:48:52;12.00;99.90
28524;DHT22;15734;50.904;6.922;2022-10-31T01:51:20;12.00;99.90
28524;DHT22;15734;50.904;6.922;2022-10-31T01:53:50;12.00;99.90
28524;DHT22;15734;50.904;6.922;2022-10-31T01:56:17;11.90;99.90
28524;DHT22;15734;50.904;6.922;2022-10-31T01:58:45;11.90;99.90
28524;DHT22;15734;50.904;6.922;2022-10-31T02:01:13;11.80;99.90
28524;DHT22;15734;50.904;6.922;2022-10-31T02:03:39;11.70;99.90
28524;DHT22;15734;50.904;6.922;2022-10-31T02:06:07;11.70;99.90
28524;DHT22;15734;50.904;6.922;2022-10-31T02:08:37;11.60;99.90
28524;DHT22;15734;50.904;6.922;2022-10-31T02:11:04;11.70;99.90
28524;DHT22;15734;50.904;6.922;2022-10-31T02:13:30;11.80;99.90
28524;DHT22;15734;50.904;6.922;2022-10-31T02:15:58;11.80;99.90
28524;DHT22;15734;50.904;6.922;2022-10-31T02:18:27;11.70;99.90
28524;DHT22;15734;50.904;6.922;2022-10-31T02:35:24;11.40;99.90
28524;DHT22;15734;50.904;6.922;2022-10-31T02:43:12;11.50;99.90
28524;DHT22;15734;50.904;6.922;2022-10-31T02:45:50;11.50;99.90
28524;DHT22;15734;50.904;6.922;2022-10-31T02:48:24;11.40;99.90
28524;DHT22;15734;50.904;6.922;2022-10-31T02:51:09;11.40;99.90
28524;DHT22;15734;50.904;6.922;2022-10-31T02:53:37;11.40;99.90
28524;DHT22;15734;50.904;6.922;2022-10-31T02:58:38;11.30;99.90
28524;DHT22;15734;50.904;6.922;2022-10-31T03:04:40;11.40;99.90
28524;DHT22;15734;50.904;6.922;2022-10-31T03:09:27;11.50;99.90
28524;DHT22;15734;50.904;6.922;2022-10-31T03:12:10;11.50;99.90
28524;DHT22;15734;50.904;6.922;2022-10-31T03:14:52;11.40;99.90
28524;DHT22;15734;50.904;6.922;2022-10-31T03:17:53;11.40;99.90
28524;DHT22;15734;50.904;6.922;2022-10-31T03:20:24;11.30;99.90
28524;DHT22;15734;50.904;6.922;2022-10-31T03:22:52;11.20;99.90
28524;DHT22;15734;50.904;6.922;2022-10-31T03:25:19;11.30;99.90
28524;DHT22;15734;50.904;6.922;2022-10-31T03:27:46;11.40;99.90
28524;DHT22;15734;50.904;6.922;2022-10-31T03:30:13;11.50;99.90
28524;DHT22;15734;50.904;6.922;2022-10-31T03:32:45;11.50;99.90
28524;DHT22;15734;50.904;6.922;2022-10-31T03:35:17;11.50;99.90
28524;DHT22;15734;50.904;6.922;2022-10-31T03:37:44;11.60;99.90
28524;DHT22;15734;50.904;6.922;2022-10-31T03:40:12;11.60;99.90
28524;DHT22;15734;50.904;6.922;2022-10-31T03:42:42;11.70;99.90
28524;DHT22;15734;50.904;6.922;2022-10-31T03:45:23;11.70;99.90
28524;DHT22;15734;50.904;6.922;2022-10-31T03:47:50;11.70;99.90
28524;DHT22;15734;50.904;6.922;2022-10-31T03:50:17;11.70;99.90
28524;DHT22;15734;50.904;6.922;2022-10-31T03:56:11;11.60;99.90
28524;DHT22;15734;50.904;6.922;2022-10-31T03:58:46;11.50;99.90
28524;DHT22;15734;50.904;6.922;2022-10-31T04:01:16;11.50;99.90
28524;DHT22;15734;50.904;6.922;2022-10-31T04:03:44;11.50;99.90
28524;DHT22;15734;50.904;6.922;2022-10-31T04:06:12;11.60;99.90
28524;DHT22;15734;50.904;6.922;2022-10-31T04:08:44;11.50;99.90
28524;DHT22;15734;50.904;6.922;2022-10-31T04:11:12;11.50;99.90
28524;DHT22;15734;50.904;6.922;2022-10-31T04:13:39;11.60;99.90
28524;DHT22;15734;50.904;6.922;2022-10-31T04:16:05;11.70;99.90
28524;DHT22;15734;50.904;6.922;2022-10-31T04:18:32;11.80;99.90
28524;DHT22;15734;50.904;6.922;2022-10-31T04:21:03;11.80;99.90
28524;DHT22;15734;50.904;6.922;2022-10-31T04:23:29;11.80;99.90
28524;DHT22;15734;50.904;6.922;2022-10-31T04:25:55;11.90;99.90
28524;DHT22;15734;50.904;6.922;2022-10-31T04:28:20;11.90;99.90
28524;DHT22;15734;50.904;6.922;2022-10-31T04:30:46;11.90;99.90
28524;DHT22;15734;50.904;6.922;2022-10-31T04:33:11;11.90;99.90
28524;DHT22;15734;50.904;6.922;2022-10-31T04:35:37;11.90;99.90
28524;DHT22;15734;50.904;6.922;2022-10-31T04:38:02;11.90;99.90
28524;DHT22;15734;50.904;6.922;2022-10-31T04:40:28;11.80;99.90
28524;DHT22;15734;50.904;6.922;2022-10-31T04:42:54;11.70;99.90
28524;DHT22;15734;50.904;6.922;2022-10-31T04:45:19;11.70;99.90
28524;DHT22;15734;50.904;6.922;2022-10-31T04:47:45;11.60;99.90
28524;DHT22;15734;50.904;6.922;2022-10-31T04:50:10;11.60;99.90
28524;DHT22;15734;50.904;6.922;2022-10-31T04:52:40;11.50;99.90
28524;DHT22;15734;50.904;6.922;2022-10-31T04:55:05;11.50;99.90
28524;DHT22;15734;50.904;6.922;2022-10-31T04:57:31;11.50;99.90
28524;DHT22;15734;50.904;6.922;2022-10-31T04:59:57;11.50;99.90
28524;DHT22;15734;50.904;6.922;2022-10-31T05:02:22;11.50;99.90
28524;DHT22;15734;50.904;6.922;2022-10-31T05:04:48;11.60;99.90
28524;DHT22;15734;50.904;6.922;2022-10-31T05:07:13;11.60;99.90
28524;DHT22;15734;50.904;6.922;2022-10-31T05:09:39;11.50;99.90
28524;DHT22;15734;50.904;6.922;2022-10-31T05:12:04;11.50;99.90
28524;DHT22;15734;50.904;6.922;2022-10-31T05:14:30;11.50;99.90
28524;DHT22;15734;50.904;6.922;2022-10-31T05:16:55;11.50;99.90
28524;DHT22;15734;50.904;6.922;2022-10-31T05:19:21;11.50;99.90
28524;DHT22;15734;50.904;6.922;2022-10-31T05:21:46;11.40;99.90
28524;DHT22;15734;50.904;6.922;2022-10-31T05:24:12;11.40;99.90
28524;DHT22;15734;50.904;6.922;2022-10-31T05:26:37;11.40;99.90
28524;DHT22;15734;50.904;6.922;2022-10-31T05:29:03;11.40;99.90
28524;DHT22;15734;50.904;6.922;2022-10-31T05:31:28;11.40;99.90
28524;DHT22;15734;50.904;6.922;2022-10-31T05:33:54;11.30;99.90
28524;DHT22;15734;50.904;6.922;2022-10-31T05:36:19;11.30;99.90
28524;DHT22;15734;50.904;6.922;2022-10-31T05:38:45;11.20;99.90
28524;DHT22;15734;50.904;6.922;2022-10-31T05:41:10;11.10;99.90
28524;DHT22;15734;50.904;6.922;2022-10-31T05:43:36;11.20;99.90
28524;DHT22;15734;50.904;6.922;2022-10-31T05:46:02;11.10;99.90
28524;DHT22;15734;50.904;6.922;2022-10-31T05:48:27;11.20;99.90
28524;DHT22;15734;50.904;6.922;2022-10-31T05:50:53;11.20;99.90
28524;DHT22;15734;50.904;6.922;2022-10-31T05:53:18;11.20;99.90
28524;DHT22;15734;50.904;6.922;2022-10-31T05:55:44;11.20;99.90
28524;DHT22;15734;50.904;6.922;2022-10-31T05:58:10;11.10;99.90
28524;DHT22;15734;50.904;6.922;2022-10-31T06:00:36;11.00;99.90
28524;DHT22;15734;50.904;6.922;2022-10-31T06:03:07;10.90;99.90
28524;DHT22;15734;50.904;6.922;2022-10-31T06:05:33;10.90;99.90
28524;DHT22;15734;50.904;6.922;2022-10-31T06:07:59;10.90;99.90
28524;DHT22;15734;50.904;6.922;2022-10-31T06:10:25;10.90;99.90
28524;DHT22;15734;50.904;6.922;2022-10-31T06:12:51;10.90;99.90
28524;DHT22;15734;50.904;6.922;2022-10-31T06:15:16;11.00;99.90
28524;DHT22;15734;50.904;6.922;2022-10-31T06:17:42;11.00;99.90
28524;DHT22;15734;50.904;6.922;2022-10-31T06:20:08;11.00;99.90
28524;DHT22;15734;50.904;6.922;2022-10-31T06:22:34;11.00;99.90
28524;DHT22;15734;50.904;6.922;2022-10-31T06:24:59;11.00;99.90
28524;DHT22;15734;50.904;6.922;2022-10-31T06:27:25;11.00;99.90
28524;DHT22;15734;50.904;6.922;2022-10-31T06:29:51;11.00;99.90
28524;DHT22;15734;50.904;6.922;2022-10-31T06:32:17;11.10;99.90
28524;DHT22;15734;50.904;6.922;2022-10-31T06:34:43;11.10;99.90
28524;DHT22;15734;50.904;6.922;2022-10-31T06:37:11;11.10;99.90
28524;DHT22;15734;50.904;6.922;2022-10-31T06:39:36;11.10;99.90
28524;DHT22;15734;50.904;6.922;2022-10-31T06:42:03;11.10;99.90
28524;DHT22;15734;50.904;6.922;2022-10-31T06:44:29;11.10;99.90
28524;DHT22;15734;50.904;6.922;2022-10-31T06:46:54;11.10;99.90
28524;DHT22;15734;50.904;6.922;2022-10-31T06:49:20;11.10;99.90
28524;DHT22;15734;50.904;6.922;2022-10-31T06:51:49;11.10;99.90
28524;DHT22;15734;50.904;6.922;2022-10-31T06:54:15;11.10;99.90
28524;DHT22;15734;50.904;6.922;2022-10-31T06:56:41;11.20;99.90
28524;DHT22;15734;50.904;6.922;2022-10-31T06:59:07;11.20;99.90
28524;DHT22;15734;50.904;6.922;2022-10-31T07:01:33;11.20;99.90
28524;DHT22;15734;50.904;6.922;2022-10-31T07:03:58;11.20;99.90
28524;DHT22;15734;50.904;6.922;2022-10-31T07:06:24;11.30;99.90
28524;DHT22;15734;50.904;6.922;2022-10-31T07:08:50;11.30;99.90
28524;DHT22;15734;50.904;6.922;2022-10-31T07:11:15;11.40;99.90
28524;DHT22;15734;50.904;6.922;2022-10-31T07:13:41;11.40;99.90
28524;DHT22;15734;50.904;6.922;2022-10-31T07:16:07;11.50;99.90
28524;DHT22;15734;50.904;6.922;2022-10-31T07:18:33;11.50;99.90
28524;DHT22;15734;50.904;6.922;2022-10-31T07:20:59;11.60;99.90
28524;DHT22;15734;50.904;6.922;2022-10-31T07:23:24;11.60;99.90
28524;DHT22;15734;50.904;6.922;2022-10-31T07:25:55;11.60;99.90
28524;DHT22;15734;50.904;6.922;2022-10-31T07:28:21;11.60;99.90
28524;DHT22;15734;50.904;6.922;2022-10-31T07:30:51;11.60;99.90
28524;DHT22;15734;50.904;6.922;2022-10-31T07:33:17;11.60;99.90
28524;DHT22;15734;50.904;6.922;2022-10-31T07:35:42;11.60;99.90
28524;DHT22;15734;50.904;6.922;2022-10-31T07:38:10;11.60;99.90
28524;DHT22;15734;50.904;6.922;2022-10-31T07:40:36;11.70;99.90
28524;DHT22;15734;50.904;6.922;2022-10-31T07:43:01;11.80;99.90
28524;DHT22;15734;50.904;6.922;2022-10-31T07:45:27;11.80;99.90
28524;DHT22;15734;50.904;6.922;2022-10-31T07:47:53;11.90;99.90
28524;DHT22;15734;50.904;6.922;2022-10-31T07:50:24;11.80;99.90
28524;DHT22;15734;50.904;6.922;2022-10-31T07:55:28;11.90;99.90
28524;DHT22;15734;50.904;6.922;2022-10-31T07:58:02;12.00;99.90
28524;DHT22;15734;50.904;6.922;2022-10-31T08:00:28;12.00;99.90
28524;DHT22;15734;50.904;6.922;2022-10-31T08:03:01;12.10;99.90
28524;DHT22;15734;50.904;6.922;2022-10-31T08:05:28;12.10;99.90
28524;DHT22;15734;50.904;6.922;2022-10-31T08:07:53;12.20;99.90
28524;DHT22;15734;50.904;6.922;2022-10-31T08:10:19;12.20;99.90
28524;DHT22;15734;50.904;6.922;2022-10-31T08:12:45;12.20;99.90
28524;DHT22;15734;50.904;6.922;2022-10-31T08:15:11;12.10;99.90
28524;DHT22;15734;50.904;6.922;2022-10-31T08:17:37;12.20;99.90
28524;DHT22;15734;50.904;6.922;2022-10-31T08:20:04;12.20;99.90
28524;DHT22;15734;50.904;6.922;2022-10-31T08:22:30;12.20;99.90
28524;DHT22;15734;50.904;6.922;2022-10-31T08:24:55;12.30;99.90
28524;DHT22;15734;50.904;6.922;2022-10-31T08:27:21;12.30;99.90
28524;DHT22;15734;50.904;6.922;2022-10-31T08:29:46;12.40;99.90
28524;DHT22;15734;50.904;6.922;2022-10-31T08:32:12;12.40;99.90
28524;DHT22;15734;50.904;6.922;2022-10-31T08:34:37;12.50;99.90
28524;DHT22;15734;50.904;6.922;2022-10-31T08:37:03;12.50;99.90
28524;DHT22;15734;50.904;6.922;2022-10-31T08:39:28;12.60;99.90
28524;DHT22;15734;50.904;6.922;2022-10-31T08:41:54;12.70;99.90
28524;DHT22;15734;50.904;6.922;2022-10-31T08:44:19;12.70;99.90
28524;DHT22;15734;50.904;6.922;2022-10-31T08:46:45;12.70;99.90
28524;DHT22;15734;50.904;6.922;2022-10-31T08:49:11;12.80;99.90
28524;DHT22;15734;50.904;6.922;2022-10-31T08:51:36;12.80;99.90
28524;DHT22;15734;50.904;6.922;2022-10-31T08:54:02;12.80;99.90
28524;DHT22;15734;50.904;6.922;2022-10-31T08:56:27;13.00;99.90
28524;DHT22;15734;50.904;6.922;2022-10-31T08:58:53;13.10;99.90
28524;DHT22;15734;50.904;6.922;2022-10-31T09:01:19;13.10;99.90
28524;DHT22;15734;50.904;6.922;2022-10-31T09:03:44;13.30;99.90
28524;DHT22;15734;50.904;6.922;2022-10-31T09:06:10;13.30;99.90
28524;DHT22;15734;50.904;6.922;2022-10-31T09:08:36;13.40;99.90
28524;DHT22;15734;50.904;6.922;2022-10-31T09:11:02;13.50;99.90
28524;DHT22;15734;50.904;6.922;2022-10-31T09:13:28;13.60;99.90
28524;DHT22;15734;50.904;6.922;2022-10-31T09:15:56;13.60;99.90
28524;DHT22;15734;50.904;6.922;2022-10-31T09:18:22;13.70;99.90
28524;DHT22;15734;50.904;6.922;2022-10-31T09:20:49;13.70;99.90
28524;DHT22;15734;50.904;6.922;2022-10-31T09:23:17;13.70;99.90
28524;DHT22;15734;50.904;6.922;2022-10-31T09:25:44;13.80;99.90
28524;DHT22;15734;50.904;6.922;2022-10-31T09:28:12;13.90;99.90
28524;DHT22;15734;50.904;6.922;2022-10-31T09:30:38;13.90;99.90
28524;DHT22;15734;50.904;6.922;2022-10-31T09:33:06;14.00;99.90
28524;DHT22;15734;50.904;6.922;2022-10-31T09:35:33;14.00;99.90
28524;DHT22;15734;50.904;6.922;2022-10-31T09:38:08;14.10;99.90
28524;DHT22;15734;50.904;6.922;2022-10-31T09:40:40;14.20;99.90
28524;DHT22;15734;50.904;6.922;2022-10-31T09:51:42;14.70;99.90
28524;DHT22;15734;50.904;6.922;2022-10-31T09:54:20;14.90;99.90
28524;DHT22;15734;50.904;6.922;2022-10-31T09:56:47;15.00;99.90
28524;DHT22;15734;50.904;6.922;2022-10-31T09:59:24;15.20;99.90
28524;DHT22;15734;50.904;6.922;2022-10-31T10:01:58;15.20;99.90
28524;DHT22;15734;50.904;6.922;2022-10-31T10:05:04;15.20;99.90
28524;DHT22;15734;50.904;6.922;2022-10-31T10:07:49;15.30;99.90
28524;DHT22;15734;50.904;6.922;2022-10-31T10:10:24;15.40;99.90
28524;DHT22;15734;50.904;6.922;2022-10-31T10:24:03;16.20;99.90
28524;DHT22;15734;50.904;6.922;2022-10-31T10:26:40;16.30;99.90
28524;DHT22;15734;50.904;6.922;2022-10-31T10:31:42;16.60;99.90
28524;DHT22;15734;50.904;6.922;2022-10-31T10:37:00;16.60;99.90
28524;DHT22;15734;50.904;6.922;2022-10-31T10:39:39;16.80;99.90
28524;DHT22;15734;50.904;6.922;2022-10-31T10:42:14;16.90;99.90
28524;DHT22;15734;50.904;6.922;2022-10-31T10:44:59;16.90;99.90
28524;DHT22;15734;50.904;6.922;2022-10-31T10:47:51;16.70;99.90
28524;DHT22;15734;50.904;6.922;2022-10-31T10:50:25;16.60;99.90
28524;DHT22;15734;50.904;6.922;2022-10-31T10:53:21;16.60;99.90
28524;DHT22;15734;50.904;6.922;2022-10-31T10:58:44;16.70;99.90
28524;DHT22;15734;50.904;6.922;2022-10-31T11:01:14;16.70;99.90
28524;DHT22;15734;50.904;6.922;2022-10-31T11:03:40;16.70;99.90
28524;DHT22;15734;50.904;6.922;2022-10-31T11:06:17;16.70;99.90
28524;DHT22;15734;50.904;6.922;2022-10-31T11:08:46;16.80;99.90
28524;DHT22;15734;50.904;6.922;2022-10-31T11:13:45;17.10;99.90
28524;DHT22;15734;50.904;6.922;2022-10-31T11:18:53;17.50;99.90
28524;DHT22;15734;50.904;6.922;2022-10-31T11:21:21;17.50;99.90
28524;DHT22;15734;50.904;6.922;2022-10-31T11:23:47;17.60;99.90
28524;DHT22;15734;50.904;6.922;2022-10-31T11:26:20;17.60;99.90
28524;DHT22;15734;50.904;6.922;2022-10-31T11:28:56;17.60;99.90
28524;DHT22;15734;50.904;6.922;2022-10-31T11:31:23;17.50;99.90
28524;DHT22;15734;50.904;6.922;2022-10-31T11:33:58;17.50;99.90
28524;DHT22;15734;50.904;6.922;2022-10-31T11:36:30;17.40;99.90
28524;DHT22;15734;50.904;6.922;2022-10-31T11:38:58;17.40;99.90
28524;DHT22;15734;50.904;6.922;2022-10-31T11:41:30;17.40;99.90
28524;DHT22;15734;50.904;6.922;2022-10-31T11:44:03;17.50;99.90
28524;DHT22;15734;50.904;6.922;2022-10-31T11:46:35;17.60;99.90
28524;DHT22;15734;50.904;6.922;2022-10-31T11:49:03;17.70;99.90
28524;DHT22;15734;50.904;6.922;2022-10-31T11:51:32;17.60;99.90
28524;DHT22;15734;50.904;6.922;2022-10-31T11:53:59;17.60;99.90
28524;DHT22;15734;50.904;6.922;2022-10-31T11:56:36;17.70;99.90
28524;DHT22;15734;50.904;6.922;2022-10-31T11:59:05;17.90;99.90
28524;DHT22;15734;50.904;6.922;2022-10-31T12:01:32;18.00;99.90
28524;DHT22;15734;50.904;6.922;2022-10-31T12:04:09;18.10;99.90
28524;DHT22;15734;50.904;6.922;2022-10-31T12:06:42;18.20;99.90
28524;DHT22;15734;50.904;6.922;2022-10-31T12:09:27;18.10;99.90
28524;DHT22;15734;50.904;6.922;2022-10-31T12:17:16;18.40;99.90
28524;DHT22;15734;50.904;6.922;2022-10-31T12:22:39;18.60;99.90
28524;DHT22;15734;50.904;6.922;2022-10-31T12:28:14;18.30;99.90
28524;DHT22;15734;50.904;6.922;2022-10-31T12:36:15;18.60;99.90
28524;DHT22;15734;50.904;6.922;2022-10-31T12:41:36;18.50;99.90
28524;DHT22;15734;50.904;6.922;2022-10-31T12:44:28;18.50;99.90
28524;DHT22;15734;50.904;6.922;2022-10-31T12:47:11;18.50;99.90
28524;DHT22;15734;50.904;6.922;2022-10-31T12:49:54;18.30;99.90
28524;DHT22;15734;50.904;6.922;2022-10-31T12:57:38;18.30;99.90
28524;DHT22;15734;50.904;6.922;2022-10-31T13:00:14;18.20;99.90
28524;DHT22;15734;50.904;6.922;2022-10-31T13:03:07;18.30;99.90
28524;DHT22;15734;50.904;6.922;2022-10-31T13:05:39;18.20;99.90
28524;DHT22;15734;50.904;6.922;2022-10-31T13:08:22;18.30;99.90
28524;DHT22;15734;50.904;6.922;2022-10-31T13:19:25;18.30;99.90
28524;DHT22;15734;50.904;6.922;2022-10-31T13:22:06;18.30;99.90
28524;DHT22;15734;50.904;6.922;2022-10-31T13:24:52;18.30;99.90
28524;DHT22;15734;50.904;6.922;2022-10-31T13:27:29;18.30;99.90
28524;DHT22;15734;50.904;6.922;2022-10-31T13:30:21;18.30;99.90
28524;DHT22;15734;50.904;6.922;2022-10-31T13:38:26;18.30;99.90
28524;DHT22;15734;50.904;6.922;2022-10-31T13:41:20;18.30;99.90
28524;DHT22;15734;50.904;6.922;2022-10-31T13:46:40;18.20;99.90
28524;DHT22;15734;50.904;6.922;2022-10-31T13:54:35;18.10;99.90
28524;DHT22;15734;50.904;6.922;2022-10-31T13:57:01;18.10;99.90
28524;DHT22;15734;50.904;6.922;2022-10-31T13:59:28;18.10;99.90
28524;DHT22;15734;50.904;6.922;2022-10-31T14:01:59;18.00;99.90
28524;DHT22;15734;50.904;6.922;2022-10-31T14:04:53;18.10;99.90
28524;DHT22;15734;50.904;6.922;2022-10-31T14:07:21;18.20;99.90
28524;DHT22;15734;50.904;6.922;2022-10-31T14:12:38;18.10;99.90
28524;DHT22;15734;50.904;6.922;2022-10-31T14:22:39;18.10;99.90
28524;DHT22;15734;50.904;6.922;2022-10-31T14:25:31;18.00;99.90
28524;DHT22;15734;50.904;6.922;2022-10-31T14:27:59;18.10;99.90
28524;DHT22;15734;50.904;6.922;2022-10-31T14:30:27;18.10;99.90
28524;DHT22;15734;50.904;6.922;2022-10-31T14:33:01;18.00;99.90
28524;DHT22;15734;50.904;6.922;2022-10-31T14:36:04;17.90;99.90
28524;DHT22;15734;50.904;6.922;2022-10-31T14:43:52;18.00;99.90
28524;DHT22;15734;50.904;6.922;2022-10-31T14:52:25;18.10;99.90
28524;DHT22;15734;50.904;6.922;2022-10-31T14:54:53;18.10;99.90
28524;DHT22;15734;50.904;6.922;2022-10-31T14:57:30;18.10;99.90
28524;DHT22;15734;50.904;6.922;2022-10-31T15:00:06;18.10;99.90
28524;DHT22;15734;50.904;6.922;2022-10-31T15:02:38;18.10;99.90
28524;DHT22;15734;50.904;6.922;2022-10-31T15:05:08;18.10;99.90
28524;DHT22;15734;50.904;6.922;2022-10-31T15:07:34;18.10;99.90
28524;DHT22;15734;50.904;6.922;2022-10-31T15:10:03;18.00;99.90
28524;DHT22;15734;50.904;6.922;2022-10-31T15:12:30;18.00;99.90
28524;DHT22;15734;50.904;6.922;2022-10-31T15:14:56;18.00;99.90
28524;DHT22;15734;50.904;6.922;2022-10-31T15:17:23;18.00;99.90
28524;DHT22;15734;50.904;6.922;2022-10-31T15:19:50;18.00;99.90
28524;DHT22;15734;50.904;6.922;2022-10-31T15:22:18;17.90;99.90
28524;DHT22;15734;50.904;6.922;2022-10-31T15:24:44;17.80;99.90
28524;DHT22;15734;50.904;6.922;2022-10-31T15:27:15;17.80;99.90
28524;DHT22;15734;50.904;6.922;2022-10-31T15:30:17;17.80;99.90
28524;DHT22;15734;50.904;6.922;2022-10-31T15:32:45;17.80;99.90
28524;DHT22;15734;50.904;6.922;2022-10-31T15:35:36;17.70;99.90
28524;DHT22;15734;50.904;6.922;2022-10-31T15:38:01;17.70;99.90
28524;DHT22;15734;50.904;6.922;2022-10-31T15:40:27;17.60;99.90
28524;DHT22;15734;50.904;6.922;2022-10-31T15:42:56;17.60;99.90
28524;DHT22;15734;50.904;6.922;2022-10-31T15:45:24;17.50;99.90
28524;DHT22;15734;50.904;6.922;2022-10-31T15:47:57;17.40;99.90
28524;DHT22;15734;50.904;6.922;2022-10-31T15:50:35;17.40;99.90
28524;DHT22;15734;50.904;6.922;2022-10-31T15:53:03;17.30;99.90
28524;DHT22;15734;50.904;6.922;2022-10-31T15:55:31;17.30;99.90
28524;DHT22;15734;50.904;6.922;2022-10-31T15:58:01;17.20;99.90
28524;DHT22;15734;50.904;6.922;2022-10-31T16:00:35;17.20;99.90
28524;DHT22;15734;50.904;6.922;2022-10-31T16:05:45;17.00;99.90
28524;DHT22;15734;50.904;6.922;2022-10-31T16:13:37;16.90;99.90
28524;DHT22;15734;50.904;6.922;2022-10-31T16:16:13;16.80;99.90
28524;DHT22;15734;50.904;6.922;2022-10-31T16:18:40;16.80;99.90
28524;DHT22;15734;50.904;6.922;2022-10-31T16:21:07;16.70;99.90
28524;DHT22;15734;50.904;6.922;2022-10-31T16:23:33;16.70;99.90
28524;DHT22;15734;50.904;6.922;2022-10-31T16:25:59;16.60;99.90
28524;DHT22;15734;50.904;6.922;2022-10-31T16:28:26;16.60;99.90
28524;DHT22;15734;50.904;6.922;2022-10-31T16:30:56;16.60;99.90
28524;DHT22;15734;50.904;6.922;2022-10-31T16:33:35;16.60;99.90
28524;DHT22;15734;50.904;6.922;2022-10-31T16:38:56;16.50;99.90
28524;DHT22;15734;50.904;6.922;2022-10-31T16:41:23;16.50;99.90
28524;DHT22;15734;50.904;6.922;2022-10-31T16:43:49;16.40;99.90
28524;DHT22;15734;50.904;6.922;2022-10-31T16:46:19;16.40;99.90
28524;DHT22;15734;50.904;6.922;2022-10-31T16:48:45;16.40;99.90
28524;DHT22;15734;50.904;6.922;2022-10-31T16:51:11;16.40;99.90
28524;DHT22;15734;50.904;6.922;2022-10-31T16:53:36;16.40;99.90
28524;DHT22;15734;50.904;6.922;2022-10-31T16:56:03;16.30;99.90
28524;DHT22;15734;50.904;6.922;2022-10-31T16:58:32;16.40;99.90
28524;DHT22;15734;50.904;6.922;2022-10-31T17:01:00;16.30;99.90
28524;DHT22;15734;50.904;6.922;2022-10-31T17:03:26;16.30;99.90
28524;DHT22;15734;50.904;6.922;2022-10-31T17:05:52;16.30;99.90
28524;DHT22;15734;50.904;6.922;2022-10-31T17:08:20;16.30;99.90
28524;DHT22;15734;50.904;6.922;2022-10-31T17:10:47;16.30;99.90
28524;DHT22;15734;50.904;6.922;2022-10-31T17:13:21;16.30;99.90
28524;DHT22;15734;50.904;6.922;2022-10-31T17:15:50;16.20;99.90
28524;DHT22;15734;50.904;6.922;2022-10-31T17:18:16;16.20;99.90
28524;DHT22;15734;50.904;6.922;2022-10-31T17:20:43;16.10;99.90
28524;DHT22;15734;50.904;6.922;2022-10-31T17:23:13;16.10;99.90
28524;DHT22;15734;50.904;6.922;2022-10-31T17:25:39;16.10;99.90
28524;DHT22;15734;50.904;6.922;2022-10-31T17:28:05;16.00;99.90
28524;DHT22;15734;50.904;6.922;2022-10-31T17:30:31;16.00;99.90
28524;DHT22;15734;50.904;6.922;2022-10-31T17:32:57;16.00;99.90
28524;DHT22;15734;50.904;6.922;2022-10-31T17:35:23;16.00;99.90
28524;DHT22;15734;50.904;6.922;2022-10-31T17:37:49;16.00;99.90
28524;DHT22;15734;50.904;6.922;2022-10-31T17:40:17;16.00;99.90
28524;DHT22;15734;50.904;6.922;2022-10-31T17:42:56;16.00;99.90
28524;DHT22;15734;50.904;6.922;2022-10-31T17:45:23;15.90;99.90
28524;DHT22;15734;50.904;6.922;2022-10-31T17:47:50;15.90;99.90
28524;DHT22;15734;50.904;6.922;2022-10-31T17:50:21;15.90;99.90
28524;DHT22;15734;50.904;6.922;2022-10-31T17:52:47;15.90;99.90
28524;DHT22;15734;50.904;6.922;2022-10-31T17:55:14;15.90;99.90
28524;DHT22;15734;50.904;6.922;2022-10-31T17:57:40;15.80;99.90
28524;DHT22;15734;50.904;6.922;2022-10-31T18:00:08;15.80;99.90
28524;DHT22;15734;50.904;6.922;2022-10-31T18:02:35;15.80;99.90
28524;DHT22;15734;50.904;6.922;2022-10-31T18:05:00;15.80;99.90
28524;DHT22;15734;50.904;6.922;2022-10-31T18:07:30;15.80;99.90
28524;DHT22;15734;50.904;6.922;2022-10-31T18:09:55;15.70;99.90
28524;DHT22;15734;50.904;6.922;2022-10-31T18:12:21;15.70;99.90
28524;DHT22;15734;50.904;6.922;2022-10-31T18:14:46;15.60;99.90